• Join FlightAware (Why Join?)
  • Login
  • US Flag 
06:35AM EDT


 

Airport Tracker/Info


-or-


 

Live Flight TrackerFlight Track Log ✈ SKW5442 ✈ 23-May-2012 ✈ CYQR - CYXE

Flight Track Log - Related Links

Times and Time Zones

All times are in EDT time to prevent confusion due to time zone crossing. See the SKW5442 flight status page for this flight to view local times or setup timezone preferences in your user account.

Time Position Orientation Groundspeed Altitude Reporting Facility
EDT Latitude Longitude Course Direction KTS MPH feet Rate Location/Type
09:36PM 50.7136 -104.9822 324° Northwest  Level Estimated
09:37PM 50.7931 -105.0725 324° Northwest  Level Estimated
09:38PM 50.8726 -105.1630 324° Northwest  Level Estimated
09:39PM 50.9520 -105.2539 324° Northwest  Level Estimated
09:40PM 51.0314 -105.3451 324° Northwest  Level Estimated
09:41PM 51.1106 -105.4365 324° Northwest  Level Estimated
09:42PM 51.1898 -105.5284 324° Northwest  Level Estimated
09:43PM 51.2690 -105.6205 324° Northwest  Level Estimated
09:44PM 51.3480 -105.7129 324° Northwest  Level Estimated
09:45PM 51.4270 -105.8056 324° Northwest  Level Estimated
09:46PM 51.5059 -105.8987 324° Northwest  Level Estimated
09:47PM 51.5847 -105.9921 324° Northwest  Level Estimated
09:48PM 51.6635 -106.0858 324° Northwest  Level Estimated
09:49PM 51.7421 -106.1799 323° Northwest  Level Estimated
09:50PM 51.8208 -106.2742 323° Northwest  Level Estimated
09:51PM 51.8993 -106.3689 323° Northwest  Level Estimated
09:52PM 51.9777 -106.4640 323° Northwest  Level Estimated
09:53PM 52.0561 -106.5594 323° Northwest  Level Estimated
09:54PM 52.1344 -106.6551 323° Northwest  Level Estimated
09:55PM 52.2126 -106.7511 143° Southeast  Level Estimated
09:56PM 52.1344 -106.6551 323° Northwest  Level Estimated
09:57PM 52.2126 -106.7511 143° Southeast  Level Estimated
09:58PM 52.1344 -106.6551 323° Northwest  Level Estimated
09:59PM 52.2126 -106.7511 143° Southeast  Level Estimated
10:00PM 52.1344 -106.6551 323° Northwest  Level Estimated
10:01PM 52.2126 -106.7511 143° Southeast  Level Estimated
10:02PM 52.1344 -106.6551 323° Northwest  Level Estimated
10:03PM 52.2126 -106.7511 323° Northwest  Level Estimated